Time;durP1;ratioP1;P1;durP2;ratioP2;P2;SDS_P1;SDS_P2;PMS_P1;PMS_P2;Temp;Humidity;BMP_temperature;BMP_pressure;BME280_temperature;BME280_humidity;BME280_pressure;Samples;Min_cycle;Max_cycle;Signal;HPM_P1;HPM_P2
2023/02/14 00:01:51;;;;;;;11.02;7.60;;;6.80;96.70;;;;;;5017851;28;20392;-76
2023/02/14 00:04:19;;;;;;;11.10;8.27;;;6.90;96.70;;;;;;5036145;28;20037;-77
2023/02/14 00:06:48;;;;;;;11.40;8.23;;;6.90;96.70;;;;;;5038754;28;20071;-76
2023/02/14 00:09:17;;;;;;;11.55;8.40;;;6.80;96.70;;;;;;5030099;28;20049;-76
2023/02/14 00:11:45;;;;;;;12.70;8.85;;;6.80;96.70;;;;;;5030677;28;20140;-76
2023/02/14 00:17:02;;;;;;;15.85;9.98;;;6.70;96.70;;;;;;5028667;28;20045;-76
2023/02/14 00:19:33;;;;;;;12.73;9.43;;;6.70;96.70;;;;;;5038740;28;20040;-75
2023/02/14 00:22:02;;;;;;;14.40;10.00;;;6.70;96.70;;;;;;5026377;28;20454;-75
2023/02/14 00:24:30;;;;;;;15.23;10.30;;;6.70;96.70;;;;;;5023826;28;20041;-74
2023/02/14 00:26:58;;;;;;;17.67;10.52;;;6.70;96.70;;;;;;5041509;28;20306;-75
2023/02/14 00:29:30;;;;;;;15.85;11.30;;;6.80;96.70;;;;;;5036813;28;20041;-75
2023/02/14 00:31:58;;;;;;;17.73;10.68;;;6.80;96.70;;;;;;5034532;28;20080;-76
2023/02/14 00:34:28;;;;;;;16.85;11.32;;;6.80;96.70;;;;;;5032237;28;20060;-76
2023/02/14 00:36:59;;;;;;;14.43;10.77;;;6.80;96.70;;;;;;5030314;28;20331;-75
2023/02/14 00:39:27;;;;;;;18.05;9.70;;;6.80;96.70;;;;;;5008587;28;20115;-76
2023/02/14 00:41:54;;;;;;;12.32;8.15;;;6.80;96.70;;;;;;5033638;28;20065;-76
2023/02/14 00:44:23;;;;;;;13.45;8.70;;;6.60;96.70;;;;;;5030722;28;20487;-75
2023/02/14 00:46:51;;;;;;;10.88;6.90;;;6.60;96.70;;;;;;5039754;28;20045;-75
2023/02/14 00:49:19;;;;;;;13.05;8.25;;;6.60;96.70;;;;;;5037087;28;21562;-76
2023/02/14 00:51:49;;;;;;;16.95;10.18;;;6.50;96.70;;;;;;5044781;28;20495;-75
2023/02/14 00:54:17;;;;;;;11.40;8.43;;;6.50;96.70;;;;;;5027900;28;20043;-76
2023/02/14 00:56:45;;;;;;;13.75;8.05;;;6.40;96.70;;;;;;5041249;28;20095;-75
2023/02/14 00:59:13;;;;;;;10.75;6.85;;;6.40;96.70;;;;;;5035127;28;20044;-76
2023/02/14 01:01:41;;;;;;;11.27;7.00;;;6.40;96.70;;;;;;5057020;28;20450;-75
2023/02/14 01:04:10;;;;;;;9.40;6.93;;;6.50;96.70;;;;;;5056052;28;20040;-75
2023/02/14 01:06:38;;;;;;;10.25;7.32;;;6.50;96.70;;;;;;5043510;28;20042;-75
2023/02/14 01:09:08;;;;;;;10.77;6.97;;;6.40;96.70;;;;;;5037323;28;20052;-75
2023/02/14 01:11:36;;;;;;;9.23;6.93;;;6.20;96.70;;;;;;5029043;28;20489;-77
2023/02/14 01:14:04;;;;;;;8.50;6.28;;;6.20;96.70;;;;;;5043656;28;20044;-75
2023/02/14 01:16:32;;;;;;;11.40;6.90;;;6.10;96.70;;;;;;5030434;28;20044;-76
2023/02/14 01:19:01;;;;;;;9.20;6.15;;;6.10;96.70;;;;;;5017447;28;20033;-76
2023/02/14 01:21:30;;;;;;;9.93;7.20;;;6.10;96.70;;;;;;5032411;28;20417;-75
2023/02/14 01:24:01;;;;;;;8.90;6.35;;;6.20;96.70;;;;;;5019295;28;20139;-76
2023/02/14 01:26:30;;;;;;;8.85;6.28;;;6.10;96.70;;;;;;5045516;28;20052;-75
2023/02/14 01:29:00;;;;;;;9.05;6.03;;;6.20;96.70;;;;;;5038130;28;20040;-75
2023/02/14 01:31:30;;;;;;;8.80;6.20;;;6.00;96.70;;;;;;5024782;28;20055;-75
2023/02/14 01:33:59;;;;;;;9.80;6.68;;;5.90;96.70;;;;;;5041633;28;20565;-76
2023/02/14 01:36:30;;;;;;;10.93;6.60;;;5.90;96.70;;;;;;5041068;28;20486;-75
2023/02/14 01:39:01;;;;;;;9.32;6.07;;;5.70;96.70;;;;;;5033436;28;20059;-75
2023/02/14 01:41:33;;;;;;;9.10;6.18;;;5.80;96.70;;;;;;5039842;28;20688;-75
2023/02/14 01:44:03;;;;;;;7.00;5.50;;;5.90;96.70;;;;;;5019059;28;20429;-75
2023/02/14 01:46:33;;;;;;;7.72;5.88;;;5.80;96.70;;;;;;5025208;28;20049;-75
2023/02/14 01:49:04;;;;;;;9.15;6.57;;;5.80;96.70;;;;;;5026157;28;20055;-76
2023/02/14 01:51:39;;;;;;;10.77;6.65;;;5.90;96.70;;;;;;5025616;28;20418;-76
2023/02/14 01:54:08;;;;;;;9.57;7.30;;;5.90;96.70;;;;;;5017989;28;20055;-76
2023/02/14 01:56:43;;;;;;;9.90;7.63;;;5.90;96.70;;;;;;5037766;28;20032;-75
2023/02/14 01:59:17;;;;;;;10.00;7.10;;;5.90;96.70;;;;;;5035143;28;20655;-75
2023/02/14 02:01:47;;;;;;;12.43;7.95;;;6.00;96.70;;;;;;5034217;28;20561;-75
2023/02/14 02:04:21;;;;;;;10.43;7.88;;;5.90;96.70;;;;;;5030438;28;20045;-75
2023/02/14 02:06:54;;;;;;;10.57;7.32;;;5.80;96.70;;;;;;5038940;28;20087;-76
2023/02/14 02:09:27;;;;;;;10.98;7.70;;;5.70;96.70;;;;;;5025317;28;20511;-76
2023/02/14 02:11:57;;;;;;;15.73;8.70;;;5.50;96.70;;;;;;5031578;28;20045;-76
2023/02/14 02:14:25;;;;;;;10.52;7.47;;;5.40;96.70;;;;;;5017945;28;20047;-76
2023/02/14 02:17:14;;;;;;;11.07;8.13;;;5.60;96.70;;;;;;5030220;28;20487;-75
2023/02/14 02:20:25;;;;;;;9.75;7.13;;;5.60;96.70;;;;;;5031528;28;20136;-76
2023/02/14 02:23:42;;;;;;;11.20;8.07;;;5.60;96.70;;;;;;5022394;28;20120;-75
2023/02/14 02:26:43;;;;;;;11.07;8.18;;;5.60;96.70;;;;;;5037085;28;20091;-75
2023/02/14 02:29:39;;;;;;;10.75;7.43;;;5.70;96.70;;;;;;5034595;28;20128;-75
2023/02/14 02:32:43;;;;;;;13.85;7.90;;;5.60;96.70;;;;;;5017375;28;20149;-76
2023/02/14 02:35:30;;;;;;;12.50;7.50;;;5.60;96.70;;;;;;5033921;28;20082;-75
2023/02/14 02:38:31;;;;;;;11.80;7.93;;;5.60;96.70;;;;;;5036868;28;20057;-75
2023/02/14 02:41:04;;;;;;;11.48;7.95;;;5.60;96.70;;;;;;5018080;28;20053;-75
2023/02/14 02:43:43;;;;;;;11.60;7.47;;;5.60;96.70;;;;;;5024513;28;20041;-75
2023/02/14 02:55:06;;;;;;;11.00;7.35;;;5.40;96.70;;;;;;5034957;28;20458;-75
2023/02/14 02:57:39;;;;;;;11.80;7.10;;;5.40;96.70;;;;;;5030860;28;20998;-72
2023/02/14 03:00:11;;;;;;;12.40;7.97;;;5.30;96.70;;;;;;5016519;28;20042;-72
2023/02/14 03:05:33;;;;;;;13.43;7.40;;;5.40;96.70;;;;;;5049818;28;20036;-73
2023/02/14 03:08:04;;;;;;;10.27;7.28;;;5.30;96.70;;;;;;5035371;28;20560;-72
2023/02/14 03:10:36;;;;;;;12.77;7.70;;;5.30;96.70;;;;;;5025826;28;20160;-72
2023/02/14 03:13:25;;;;;;;10.93;7.20;;;5.30;96.70;;;;;;5058845;28;20048;-71
2023/02/14 03:16:17;;;;;;;8.95;6.78;;;5.30;96.70;;;;;;5036437;28;20048;-72
2023/02/14 03:19:02;;;;;;;9.63;7.05;;;5.20;96.70;;;;;;5031870;28;20122;-73
2023/02/14 03:21:36;;;;;;;8.50;6.55;;;5.20;96.70;;;;;;5061136;28;20090;-72
2023/02/14 03:24:12;;;;;;;12.60;7.30;;;5.20;96.70;;;;;;5031430;28;20133;-72
2023/02/14 03:26:48;;;;;;;8.90;6.70;;;5.20;96.70;;;;;;5040792;28;20151;-72
2023/02/14 03:29:24;;;;;;;10.13;7.00;;;5.30;96.70;;;;;;5043417;28;20050;-73
2023/02/14 03:32:00;;;;;;;9.40;7.15;;;5.20;96.70;;;;;;5036802;28;20131;-72
2023/02/14 03:34:34;;;;;;;8.35;5.93;;;5.00;96.70;;;;;;5029354;28;20044;-73
2023/02/14 03:37:07;;;;;;;9.07;5.57;;;5.10;96.70;;;;;;5038778;28;21427;-72
2023/02/14 03:39:43;;;;;;;11.05;6.35;;;5.10;96.70;;;;;;5044432;28;20063;-72
2023/02/14 03:42:18;;;;;;;10.73;5.77;;;5.10;96.70;;;;;;5036238;28;20128;-72
2023/02/14 03:44:48;;;;;;;8.70;5.40;;;5.00;96.70;;;;;;5016807;28;20144;-72
2023/02/14 03:47:19;;;;;;;10.60;5.95;;;5.00;96.70;;;;;;5008608;28;20053;-72
2023/02/14 03:49:52;;;;;;;8.25;5.72;;;5.00;96.70;;;;;;5043618;28;20052;-72
2023/02/14 03:52:21;;;;;;;9.57;6.18;;;5.00;96.70;;;;;;5030432;28;20051;-72
2023/02/14 03:54:54;;;;;;;9.90;6.38;;;5.00;96.70;;;;;;5026399;28;20057;-72
2023/02/14 03:57:27;;;;;;;9.10;6.03;;;5.00;96.70;;;;;;5051672;28;20044;-72
2023/02/14 03:59:56;;;;;;;7.97;5.82;;;4.90;96.70;;;;;;5055693;28;20381;-73
2023/02/14 04:02:30;;;;;;;7.72;5.63;;;4.80;96.70;;;;;;5038012;28;20049;-72
2023/02/14 04:05:00;;;;;;;10.25;6.85;;;4.70;96.70;;;;;;5043540;28;20041;-72
2023/02/14 04:07:28;;;;;;;8.43;6.22;;;4.70;96.70;;;;;;5042666;28;20037;-73
2023/02/14 04:09:58;;;;;;;9.40;5.88;;;4.80;96.70;;;;;;5036877;28;20071;-72
2023/02/14 04:12:26;;;;;;;7.63;5.60;;;4.70;96.70;;;;;;5041561;28;20053;-72
2023/02/14 04:15:05;;;;;;;8.32;5.60;;;4.80;96.70;;;;;;5027373;28;20076;-72
2023/02/14 04:20:20;;;;;;;6.65;5.15;;;4.80;96.70;;;;;;5044709;28;20566;-72
2023/02/14 04:22:50;;;;;;;9.55;5.15;;;4.70;96.70;;;;;;5030432;28;20041;-71
2023/02/14 04:25:20;;;;;;;7.25;5.55;;;4.80;96.70;;;;;;5061388;28;20048;-73
2023/02/14 04:27:48;;;;;;;12.05;6.38;;;4.70;96.70;;;;;;5032743;28;20059;-72
2023/02/14 04:30:16;;;;;;;10.23;6.40;;;4.80;96.70;;;;;;5042388;28;20359;-72
2023/02/14 04:32:45;;;;;;;9.82;6.28;;;4.80;96.70;;;;;;5027017;28;20052;-72
2023/02/14 04:35:13;;;;;;;9.05;5.88;;;4.80;96.70;;;;;;5012280;28;20037;-72
2023/02/14 04:37:41;;;;;;;8.55;5.85;;;4.80;96.70;;;;;;5032726;28;20076;-72
2023/02/14 04:40:10;;;;;;;10.95;6.53;;;4.70;96.70;;;;;;5051234;28;20139;-72
2023/02/14 04:42:40;;;;;;;8.73;6.22;;;4.60;96.70;;;;;;5034785;28;20063;-73
2023/02/14 04:45:08;;;;;;;8.15;5.88;;;4.70;96.70;;;;;;5026733;28;20052;-71
2023/02/14 04:47:36;;;;;;;10.63;6.13;;;4.60;96.70;;;;;;5043807;28;20570;-72
2023/02/14 04:50:06;;;;;;;9.57;6.40;;;4.50;96.70;;;;;;5059918;28;20043;-72
2023/02/14 04:52:34;;;;;;;9.52;6.20;;;4.40;96.70;;;;;;5037078;28;20391;-72
2023/02/14 04:55:03;;;;;;;8.52;6.28;;;4.30;96.70;;;;;;5016686;28;20144;-73
2023/02/14 04:57:31;;;;;;;8.93;6.32;;;4.40;96.70;;;;;;5055410;28;20063;-72
2023/02/14 05:00:00;;;;;;;9.70;6.93;;;4.50;96.70;;;;;;5051090;28;20037;-72
2023/02/14 05:02:28;;;;;;;10.43;6.13;;;4.50;96.70;;;;;;5021575;28;20052;-72
2023/02/14 05:04:56;;;;;;;9.52;6.65;;;4.50;96.70;;;;;;5032249;28;20378;-72
2023/02/14 05:07:24;;;;;;;12.57;6.20;;;4.50;96.70;;;;;;5027271;28;20052;-72
2023/02/14 05:09:52;;;;;;;13.65;6.78;;;4.50;96.70;;;;;;5050011;28;20044;-72
2023/02/14 05:12:20;;;;;;;8.88;5.85;;;4.50;96.70;;;;;;5033700;28;20624;-72
2023/02/14 05:14:48;;;;;;;8.57;6.15;;;4.40;96.70;;;;;;5030232;28;20107;-72
2023/02/14 05:17:17;;;;;;;10.27;6.18;;;4.40;96.70;;;;;;5039494;28;20045;-73
2023/02/14 05:19:45;;;;;;;9.02;6.20;;;4.40;96.70;;;;;;5019126;28;20045;-71
2023/02/14 05:22:13;;;;;;;9.57;6.35;;;4.30;96.70;;;;;;5048737;28;20583;-72
2023/02/14 05:24:44;;;;;;;9.57;7.00;;;4.20;96.70;;;;;;5042788;28;20075;-72
2023/02/14 05:27:12;;;;;;;10.98;6.65;;;4.20;96.70;;;;;;5027845;28;20597;-71
2023/02/14 05:29:40;;;;;;;9.23;6.95;;;4.30;96.70;;;;;;5036014;28;20083;-71
2023/02/14 05:32:08;;;;;;;9.68;6.22;;;4.30;96.70;;;;;;5033886;28;20040;-72
2023/02/14 05:34:38;;;;;;;8.77;5.88;;;4.20;96.70;;;;;;5063121;28;20399;-72
2023/02/14 05:37:05;;;;;;;8.65;5.47;;;4.20;96.70;;;;;;5064168;28;20111;-71
2023/02/14 05:39:33;;;;;;;8.95;6.00;;;4.20;96.70;;;;;;5064849;28;20052;-72
2023/02/14 05:42:02;;;;;;;8.40;5.82;;;4.10;96.70;;;;;;5062682;28;20040;-72
2023/02/14 05:44:30;;;;;;;8.07;5.88;;;4.10;96.70;;;;;;5065300;28;20044;-71
2023/02/14 05:46:58;;;;;;;7.25;5.60;;;4.10;96.70;;;;;;5064937;28;20037;-72
2023/02/14 05:49:28;;;;;;;9.90;6.25;;;4.10;96.70;;;;;;5045976;28;20592;-71
2023/02/14 05:51:58;;;;;;;12.38;6.35;;;4.20;96.70;;;;;;5045544;28;20303;-72
2023/02/14 05:54:26;;;;;;;9.50;6.05;;;4.10;96.70;;;;;;5058912;28;20124;-72
2023/02/14 05:56:53;;;;;;;11.27;6.55;;;4.00;96.70;;;;;;5045286;28;20564;-72
2023/02/14 05:59:21;;;;;;;8.45;5.70;;;4.10;96.70;;;;;;5032549;28;20040;-71
2023/02/14 06:01:49;;;;;;;7.63;5.70;;;4.20;96.70;;;;;;5054994;28;20148;-71
2023/02/14 06:04:17;;;;;;;8.70;5.90;;;4.20;96.70;;;;;;5052367;28;20531;-72
2023/02/14 06:06:45;;;;;;;9.00;6.38;;;4.20;96.70;;;;;;5064054;28;20048;-72
2023/02/14 06:09:15;;;;;;;10.80;6.45;;;4.10;96.70;;;;;;5023693;28;20072;-72
2023/02/14 06:11:43;;;;;;;9.07;6.57;;;4.00;96.70;;;;;;5049534;28;20451;-72
2023/02/14 06:14:10;;;;;;;9.13;6.30;;;4.10;96.70;;;;;;5051890;28;20464;-71
2023/02/14 06:16:38;;;;;;;12.10;7.45;;;3.90;96.70;;;;;;5025360;28;20079;-72
2023/02/14 06:19:06;;;;;;;11.15;7.03;;;3.90;96.70;;;;;;5052280;28;20545;-72
2023/02/14 06:21:35;;;;;;;12.00;7.25;;;3.80;96.70;;;;;;5037052;28;20123;-71
2023/02/14 06:24:02;;;;;;;11.82;7.53;;;4.00;96.70;;;;;;5037680;28;20158;-72
2023/02/14 06:26:34;;;;;;;13.77;8.55;;;4.10;96.70;;;;;;5050217;28;20139;-71
2023/02/14 06:29:03;;;;;;;13.13;8.35;;;4.10;96.70;;;;;;5028535;28;20164;-71
2023/02/14 06:31:31;;;;;;;14.52;7.75;;;4.00;96.70;;;;;;5027535;28;20037;-71
2023/02/14 06:33:59;;;;;;;12.75;7.03;;;3.90;96.70;;;;;;5053343;28;20635;-72
2023/02/14 06:36:27;;;;;;;9.93;7.00;;;3.90;96.70;;;;;;5038630;28;20036;-72
2023/02/14 06:38:55;;;;;;;11.35;7.70;;;4.00;96.70;;;;;;5028512;28;20139;-72
2023/02/14 06:41:23;;;;;;;13.20;7.18;;;3.90;96.70;;;;;;5055272;28;20126;-72
2023/02/14 06:43:52;;;;;;;11.30;6.30;;;3.80;96.70;;;;;;5044064;28;20072;-72
2023/02/14 06:46:20;;;;;;;11.95;7.20;;;3.70;96.70;;;;;;5019195;28;20040;-71
2023/02/14 06:48:48;;;;;;;11.10;7.35;;;3.90;96.70;;;;;;5034075;28;20139;-72
2023/02/14 06:51:16;;;;;;;14.48;7.82;;;4.00;96.70;;;;;;5055805;28;20048;-72
2023/02/14 06:53:44;;;;;;;15.13;8.65;;;4.00;96.70;;;;;;5041887;28;20068;-72
2023/02/14 06:56:12;;;;;;;13.32;8.30;;;4.10;96.70;;;;;;5031628;28;20041;-71
2023/02/14 06:58:39;;;;;;;17.33;9.73;;;4.10;96.70;;;;;;5009096;28;20406;-72
2023/02/14 07:01:09;;;;;;;13.50;8.60;;;4.30;96.70;;;;;;5015320;28;20068;-71
2023/02/14 07:03:37;;;;;;;14.63;9.10;;;4.20;96.70;;;;;;5029499;28;20051;-72
2023/02/14 07:06:05;;;;;;;13.38;9.07;;;4.20;96.70;;;;;;5025936;28;20140;-71
2023/02/14 07:08:32;;;;;;;12.93;8.73;;;4.10;96.70;;;;;;5033465;28;20049;-72
2023/02/14 07:11:01;;;;;;;13.82;7.93;;;4.20;96.70;;;;;;5059506;28;20049;-72
2023/02/14 07:13:29;;;;;;;13.63;8.20;;;4.20;96.70;;;;;;5035176;28;20052;-72
2023/02/14 07:15:57;;;;;;;11.90;7.43;;;4.20;96.70;;;;;;5060979;28;20040;-72
2023/02/14 07:18:26;;;;;;;13.48;7.70;;;4.30;96.70;;;;;;5044766;28;20051;-72
2023/02/14 07:20:55;;;;;;;11.75;7.40;;;4.30;96.70;;;;;;5032072;28;20082;-71
2023/02/14 07:23:23;;;;;;;10.90;7.55;;;4.40;96.70;;;;;;5033411;28;20048;-72
2023/02/14 07:25:51;;;;;;;12.52;6.90;;;4.40;96.70;;;;;;5044507;28;20662;-72
2023/02/14 07:28:19;;;;;;;12.68;7.38;;;4.40;96.70;;;;;;5050628;28;20045;-71
2023/02/14 07:30:48;;;;;;;10.63;6.78;;;4.30;96.70;;;;;;5049700;28;20049;-71
2023/02/14 07:33:16;;;;;;;8.77;6.10;;;4.40;96.70;;;;;;5019200;28;20120;-72
2023/02/14 07:35:45;;;;;;;9.40;6.03;;;4.30;96.70;;;;;;5032093;28;20132;-72
2023/02/14 07:38:13;;;;;;;8.98;6.22;;;4.30;96.70;;;;;;5020313;28;20072;-71
2023/02/14 07:40:41;;;;;;;10.00;6.80;;;4.40;96.70;;;;;;5056901;28;20088;-72
2023/02/14 07:43:08;;;;;;;12.77;7.32;;;4.40;96.70;;;;;;5048244;28;20692;-72
2023/02/14 07:45:36;;;;;;;10.05;6.70;;;4.60;96.70;;;;;;5036799;28;20438;-72
2023/02/14 07:48:04;;;;;;;12.93;7.00;;;4.70;96.70;;;;;;5058465;28;20037;-72
2023/02/14 07:50:32;;;;;;;13.45;6.78;;;4.80;96.70;;;;;;5035801;28;20072;-71
2023/02/14 07:53:01;;;;;;;19.25;8.07;;;4.80;96.70;;;;;;5061870;28;20097;-71
2023/02/14 07:55:29;;;;;;;12.98;7.97;;;4.80;96.70;;;;;;5058375;28;20037;-72
2023/02/14 07:57:57;;;;;;;11.15;7.03;;;4.90;96.70;;;;;;5037046;28;20114;-73
2023/02/14 08:00:25;;;;;;;9.80;6.43;;;4.90;96.70;;;;;;5054263;28;20083;-76
2023/02/14 08:02:54;;;;;;;8.95;6.30;;;4.90;96.70;;;;;;5025421;28;20052;-76
2023/02/14 08:05:22;;;;;;;12.23;7.10;;;4.80;96.70;;;;;;5034797;28;20048;-72
2023/02/14 08:07:50;;;;;;;11.75;6.13;;;4.90;96.70;;;;;;5039935;28;20048;-72
2023/02/14 08:10:20;;;;;;;10.35;7.40;;;5.00;96.70;;;;;;5040108;28;20450;-73
2023/02/14 08:13:00;;;;;;;9.68;6.90;;;5.20;96.70;;;;;;5030076;28;20055;-73
2023/02/14 08:18:19;;;;;;;13.00;7.53;;;5.30;96.70;;;;;;5057338;28;20490;-73
2023/02/14 08:20:48;;;;;;;11.50;7.07;;;5.30;96.70;;;;;;5023291;28;20084;-74
2023/02/14 08:23:18;;;;;;;11.75;7.80;;;5.40;96.70;;;;;;5035958;28;20037;-73
2023/02/14 08:25:47;;;;;;;11.23;7.93;;;5.50;96.70;;;;;;5061698;28;20045;-73
2023/02/14 08:28:15;;;;;;;13.48;7.45;;;5.50;96.70;;;;;;5051843;28;20048;-74
2023/02/14 08:30:44;;;;;;;11.00;7.38;;;5.50;96.70;;;;;;5033270;28;20749;-73
2023/02/14 08:33:12;;;;;;;9.98;7.45;;;5.60;96.70;;;;;;5036320;28;20049;-74
2023/02/14 08:35:40;;;;;;;11.60;8.15;;;5.70;96.70;;;;;;5040293;28;20047;-75
2023/02/14 08:38:08;;;;;;;12.90;8.25;;;5.80;96.70;;;;;;5031899;28;20099;-74
2023/02/14 08:40:36;;;;;;;13.27;9.80;;;5.80;96.70;;;;;;5055733;28;20130;-76
2023/02/14 08:43:06;;;;;;;12.82;9.02;;;5.90;96.70;;;;;;5033392;28;20124;-76
2023/02/14 08:45:35;;;;;;;10.63;7.75;;;6.00;96.70;;;;;;5049022;28;20467;-76
2023/02/14 08:48:05;;;;;;;12.38;9.02;;;6.10;96.70;;;;;;5035066;28;20045;-76
2023/02/14 08:50:34;;;;;;;14.25;9.20;;;6.20;96.70;;;;;;5030751;28;20044;-75
2023/02/14 08:53:06;;;;;;;11.50;8.55;;;6.20;96.70;;;;;;5022154;28;20044;-78
2023/02/14 08:55:34;;;;;;;11.75;8.73;;;6.30;96.70;;;;;;5023613;28;20832;-77
2023/02/14 08:58:03;;;;;;;11.18;9.27;;;6.30;96.70;;;;;;5012249;28;20052;-77
2023/02/14 09:00:32;;;;;;;12.95;9.20;;;6.40;96.70;;;;;;5027365;28;20052;-76
2023/02/14 09:03:01;;;;;;;15.05;9.55;;;6.50;96.70;;;;;;5026868;28;20108;-75
2023/02/14 09:05:29;;;;;;;14.10;9.48;;;6.50;96.70;;;;;;5036375;28;20059;-77
2023/02/14 09:07:56;;;;;;;14.23;9.80;;;6.60;96.70;;;;;;5029499;28;20506;-78
2023/02/14 09:10:25;;;;;;;13.30;8.63;;;6.70;96.70;;;;;;5011823;28;20071;-75
2023/02/14 09:12:53;;;;;;;12.38;8.50;;;6.90;96.70;;;;;;5046201;28;20050;-74
2023/02/14 09:15:21;;;;;;;12.23;8.25;;;7.00;96.70;;;;;;5039998;28;20047;-75
2023/02/14 09:17:50;;;;;;;15.02;8.70;;;7.00;96.70;;;;;;5065202;28;20151;-75
2023/02/14 09:20:18;;;;;;;10.75;8.10;;;7.20;96.70;;;;;;5059307;28;20166;-74
2023/02/14 09:22:46;;;;;;;11.23;7.85;;;7.30;96.70;;;;;;5045430;28;20037;-75
2023/02/14 09:25:15;;;;;;;12.98;8.82;;;7.40;96.70;;;;;;5045906;28;20047;-75
2023/02/14 09:27:43;;;;;;;11.73;8.88;;;7.50;96.70;;;;;;5032802;28;20067;-75
2023/02/14 09:30:13;;;;;;;12.52;9.07;;;7.50;96.70;;;;;;5029055;28;20570;-76
2023/02/14 09:32:40;;;;;;;13.50;9.65;;;7.50;96.70;;;;;;5033104;28;20045;-75
2023/02/14 09:40:43;;;;;;;15.55;10.70;;;7.90;96.70;;;;;;5051618;28;20055;-75
2023/02/14 09:43:20;;;;;;;12.23;9.75;;;8.10;96.70;;;;;;5030362;28;20495;-79
2023/02/14 09:45:52;;;;;;;13.48;10.35;;;8.20;96.70;;;;;;5057574;28;20581;-78
2023/02/14 09:48:26;;;;;;;11.63;9.80;;;8.30;96.70;;;;;;5058410;28;20089;-78
2023/02/14 09:50:59;;;;;;;12.13;9.32;;;8.40;96.70;;;;;;5035257;28;20103;-77
2023/02/14 09:53:29;;;;;;;14.70;9.93;;;8.50;96.70;;;;;;5053657;28;20336;-77
2023/02/14 09:56:04;;;;;;;14.60;11.32;;;8.60;96.70;;;;;;5035901;28;20556;-78
2023/02/14 09:58:35;;;;;;;15.05;11.60;;;8.70;96.70;;;;;;5059310;28;20060;-78
2023/02/14 10:01:14;;;;;;;13.63;9.50;;;8.80;96.70;;;;;;5033709;28;20057;-77
2023/02/14 10:04:11;;;;;;;14.93;10.20;;;9.00;96.70;;;;;;5054306;28;20044;-77
2023/02/14 10:06:47;;;;;;;15.77;11.65;;;9.10;96.70;;;;;;5036400;28;20071;-74
2023/02/14 10:09:29;;;;;;;14.45;10.73;;;9.20;96.70;;;;;;5029904;28;20044;-74
2023/02/14 10:11:59;;;;;;;14.75;11.20;;;9.40;96.70;;;;;;5025949;28;20079;-74
2023/02/14 10:14:32;;;;;;;15.65;11.55;;;9.40;96.70;;;;;;5042826;28;20045;-74
2023/02/14 10:17:06;;;;;;;16.83;12.55;;;9.50;96.70;;;;;;5035981;28;20036;-74
2023/02/14 10:19:38;;;;;;;15.38;11.82;;;9.60;96.70;;;;;;5042075;28;20049;-74
2023/02/14 10:22:13;;;;;;;17.45;13.02;;;9.70;96.70;;;;;;5028962;28;20585;-74
2023/02/14 10:24:44;;;;;;;15.38;12.60;;;9.80;96.70;;;;;;5043391;28;20044;-74
2023/02/14 10:27:28;;;;;;;16.60;12.30;;;9.90;96.70;;;;;;5031512;28;20426;-73
2023/02/14 10:29:56;;;;;;;15.02;12.23;;;10.10;96.70;;;;;;5026123;28;20045;-74
2023/02/14 10:32:31;;;;;;;15.38;12.13;;;10.00;96.70;;;;;;5032445;28;20122;-73
2023/02/14 10:35:03;;;;;;;16.13;11.80;;;10.00;96.70;;;;;;5012392;28;20045;-74
2023/02/14 10:37:48;;;;;;;14.60;11.38;;;10.00;96.70;;;;;;5035061;28;20125;-73
2023/02/14 10:40:42;;;;;;;14.45;11.35;;;10.20;96.70;;;;;;5047304;28;20059;-75
2023/02/14 10:43:21;;;;;;;14.98;11.73;;;10.30;96.70;;;;;;5018724;28;20052;-73
2023/02/14 10:45:57;;;;;;;13.52;11.48;;;10.50;96.70;;;;;;5033843;28;20041;-73
2023/02/14 10:48:34;;;;;;;13.50;10.98;;;10.70;96.70;;;;;;5010085;28;20058;-73
2023/02/14 10:51:11;;;;;;;15.30;10.63;;;10.70;96.70;;;;;;5062640;28;20048;-73
2023/02/14 10:53:44;;;;;;;;;;;10.60;96.70;;;;;;5057514;28;20123;-74
2023/02/14 10:56:18;;;;;;;12.93;9.60;;;10.70;96.70;;;;;;5043517;28;20641;-73
2023/02/14 10:58:49;;;;;;;12.73;8.65;;;11.00;96.70;;;;;;5009274;28;20045;-74
2023/02/14 11:01:18;;;;;;;14.27;9.35;;;11.20;96.70;;;;;;5035751;28;20080;-74
2023/02/14 11:03:53;;;;;;;12.85;9.23;;;11.30;96.70;;;;;;5034473;28;20465;-74
2023/02/14 11:06:21;;;;;;;11.55;8.88;;;11.40;96.70;;;;;;5043707;28;20147;-73
2023/02/14 11:08:50;;;;;;;12.32;10.32;;;11.50;96.70;;;;;;5042986;28;20051;-73
2023/02/14 11:11:23;;;;;;;11.70;9.35;;;11.40;96.70;;;;;;5032812;28;20040;-73
2023/02/14 11:13:51;;;;;;;11.60;10.10;;;11.50;96.70;;;;;;5043568;28;20161;-73
2023/02/14 11:16:29;;;;;;;12.30;9.70;;;11.60;96.70;;;;;;5014456;28;20037;-73
2023/02/14 11:19:17;;;;;;;15.52;9.55;;;11.50;96.70;;;;;;5044621;28;20045;-74
2023/02/14 11:21:45;;;;;;;;;;;11.60;96.70;;;;;;5043966;28;20387;-73
2023/02/14 11:24:23;;;;;;;10.68;8.70;;;11.60;96.70;;;;;;5034325;28;19968;-73
2023/02/14 11:26:54;;;;;;;13.55;9.98;;;11.70;96.70;;;;;;5043299;28;20129;-73
2023/02/14 11:29:27;;;;;;;14.00;10.10;;;11.80;96.70;;;;;;5043804;28;20045;-74
2023/02/14 11:32:04;;;;;;;11.13;9.32;;;12.00;96.70;;;;;;5059434;28;20048;-73
2023/02/14 11:34:35;;;;;;;13.02;9.73;;;12.10;96.70;;;;;;5047832;28;20045;-73
2023/02/14 11:37:25;;;;;;;12.13;10.25;;;12.30;96.70;;;;;;5021706;28;20531;-74
2023/02/14 11:39:56;;;;;;;12.05;9.77;;;12.50;96.70;;;;;;5051564;28;20052;-73
2023/02/14 11:42:40;;;;;;;12.90;10.20;;;12.70;96.70;;;;;;5031919;28;20049;-74
2023/02/14 11:45:27;;;;;;;12.45;9.88;;;12.80;96.70;;;;;;5015939;28;20524;-73
2023/02/14 11:48:13;;;;;;;;;;;12.90;96.70;;;;;;5026428;28;20990;-74
2023/02/14 11:50:54;;;;;;;12.27;9.80;;;13.10;96.70;;;;;;5042913;28;19925;-74
2023/02/14 11:53:25;;;;;;;13.88;10.43;;;13.30;96.70;;;;;;5043393;28;20041;-73
2023/02/14 11:55:56;;;;;;;15.13;10.35;;;13.40;96.70;;;;;;5043073;28;20524;-74
2023/02/14 11:58:32;;;;;;;13.10;11.13;;;13.50;96.70;;;;;;5042662;28;20057;-73
2023/02/14 12:01:01;;;;;;;14.27;10.68;;;13.70;96.70;;;;;;5050967;28;20157;-73
2023/02/14 12:03:37;;;;;;;15.35;11.23;;;13.80;96.70;;;;;;5025142;28;20053;-74
2023/02/14 12:06:06;;;;;;;15.38;11.20;;;13.90;96.70;;;;;;5051263;28;20049;-74
2023/02/14 12:08:37;;;;;;;15.57;12.63;;;14.00;96.70;;;;;;5024473;28;20659;-74
2023/02/14 12:11:19;;;;;;;15.75;11.27;;;14.20;96.70;;;;;;5053423;28;20048;-74
2023/02/14 12:13:55;;;;;;;15.30;11.90;;;14.30;96.70;;;;;;5024542;28;20099;-73
2023/02/14 12:16:27;;;;;;;15.20;11.65;;;14.40;96.70;;;;;;5048686;28;20053;-74
2023/02/14 12:19:01;;;;;;;14.18;11.02;;;14.40;96.70;;;;;;5030896;28;20522;-74
2023/02/14 12:21:43;;;;;;;13.77;10.57;;;14.40;96.70;;;;;;5062031;28;20040;-74
2023/02/14 12:24:17;;;;;;;16.65;11.48;;;14.50;96.70;;;;;;5042702;28;20425;-73
2023/02/14 12:26:52;;;;;;;15.48;10.77;;;14.60;96.70;;;;;;5042686;28;21067;-74
2023/02/14 12:29:25;;;;;;;15.38;12.20;;;14.70;96.70;;;;;;5042616;28;20068;-74
2023/02/14 12:31:58;;;;;;;15.65;10.88;;;14.80;96.70;;;;;;5031796;28;20060;-73
2023/02/14 12:34:26;;;;;;;12.88;10.98;;;14.90;96.70;;;;;;5025128;28;20041;-74
2023/02/14 12:37:15;;;;;;;14.35;11.35;;;15.00;96.70;;;;;;5019227;28;20556;-74
2023/02/14 12:40:03;;;;;;;12.23;10.45;;;15.20;96.70;;;;;;5048154;28;20227;-74
2023/02/14 12:43:00;;;;;;;14.27;9.50;;;15.30;96.70;;;;;;5028362;28;20103;-74
2023/02/14 12:45:44;;;;;;;14.38;9.85;;;15.30;96.70;;;;;;5036431;28;20536;-73
2023/02/14 12:48:32;;;;;;;11.55;9.07;;;15.30;96.70;;;;;;5046416;28;20055;-74
2023/02/14 12:51:07;;;;;;;12.82;9.07;;;15.30;96.70;;;;;;5060169;28;20560;-74
2023/02/14 12:53:49;;;;;;;15.05;12.30;;;15.40;96.70;;;;;;5037428;28;20743;-73
2023/02/14 12:56:27;;;;;;;13.68;11.95;;;15.50;96.70;;;;;;5027428;28;20045;-73
2023/02/14 12:59:07;;;;;;;14.57;12.30;;;15.60;96.70;;;;;;5045743;28;20071;-74
2023/02/14 13:02:09;;;;;;;14.30;12.68;;;15.70;96.70;;;;;;5049120;28;20064;-73
2023/02/14 13:05:04;;;;;;;13.75;11.73;;;15.70;96.70;;;;;;5031004;28;20045;-74
2023/02/14 13:07:54;;;;;;;15.75;13.07;;;15.70;96.70;;;;;;5014458;28;20053;-74
2023/02/14 13:10:38;;;;;;;14.95;13.02;;;15.80;96.70;;;;;;5028307;28;20055;-74
2023/02/14 13:13:15;;;;;;;15.73;13.20;;;15.80;96.70;;;;;;5046037;28;20677;-74
2023/02/14 13:15:53;;;;;;;14.55;12.98;;;16.00;96.70;;;;;;5034415;28;20075;-73
2023/02/14 13:18:32;;;;;;;12.68;11.32;;;16.00;96.70;;;;;;5045574;28;20560;-73
2023/02/14 13:21:04;;;;;;;14.82;12.55;;;16.10;96.70;;;;;;5044041;28;20056;-73
2023/02/14 13:23:39;;;;;;;15.00;12.63;;;16.10;96.70;;;;;;5045106;28;20047;-73
2023/02/14 13:26:11;;;;;;;14.48;12.95;;;16.10;96.70;;;;;;5027336;28;20401;-73
2023/02/14 13:28:45;;;;;;;12.90;11.25;;;16.10;96.70;;;;;;5054842;28;20045;-73
2023/02/14 13:31:16;;;;;;;14.57;13.07;;;16.20;96.70;;;;;;5047081;28;20059;-73
2023/02/14 13:33:49;;;;;;;16.42;13.05;;;16.30;96.70;;;;;;5031967;28;20049;-73
2023/02/14 13:36:18;;;;;;;13.63;11.60;;;16.30;96.70;;;;;;5050187;28;20041;-73
2023/02/14 13:38:48;;;;;;;13.40;11.65;;;16.30;96.70;;;;;;5026541;28;20053;-73